Time;durP1;ratioP1;P1;durP2;ratioP2;P2;SDS_P1;SDS_P2;PMS_P1;PMS_P2;Temp;Humidity;BMP_temperature;BMP_pressure;BME280_temperature;BME280_humidity;BME280_pressure;Samples;Min_cycle;Max_cycle;Signal;HPM_P1;HPM_P2
2022/11/16 00:01:25;;;;;;;125.78;54.33;;;;;;;9.52;100.00;99830.06;5105995;28;20020;-73
2022/11/16 00:03:52;;;;;;;134.80;57.33;;;;;;;9.55;100.00;99836.00;5096705;28;20032;-73
2022/11/16 00:06:19;;;;;;;132.85;56.20;;;;;;;9.53;100.00;99821.91;5097543;28;20020;-73
2022/11/16 00:09:20;;;;;;;117.00;52.92;;;;;;;9.53;100.00;99821.91;5097746;28;20081;-74
2022/11/16 00:11:33;;;;;;;121.40;52.72;;;;;;;9.54;100.00;99822.78;5116114;28;20056;-73
2022/11/16 00:13:59;;;;;;;114.40;48.75;;;;;;;9.53;100.00;99813.88;5106505;28;20784;-72
2022/11/16 00:16:24;;;;;;;108.50;48.95;;;;;;;9.51;100.00;99818.53;5109355;28;20031;-72
2022/11/16 00:18:56;;;;;;;120.60;49.58;;;;;;;9.52;100.00;99819.38;5115960;28;20024;-73
2022/11/16 00:21:21;;;;;;;118.32;52.03;;;;;;;9.49;100.00;99798.25;5112632;28;20028;-72
2022/11/16 00:23:46;;;;;;;123.40;53.10;;;;;;;9.48;100.00;99802.72;5112382;28;20033;-65
2022/11/16 00:26:12;;;;;;;121.60;51.75;;;;;;;9.51;100.00;99805.13;5096728;28;20089;-66
2022/11/16 00:28:37;;;;;;;118.53;51.33;;;;;;;9.46;100.00;99804.72;5100959;28;20072;-66
2022/11/16 00:31:05;;;;;;;113.70;50.00;;;;;;;9.52;100.00;99801.50;5102959;28;20028;-66
2022/11/16 00:33:31;;;;;;;115.57;47.85;;;;;;;9.53;100.00;99803.19;5096461;28;20028;-73
2022/11/16 00:35:56;;;;;;;117.28;51.35;;;;;;;9.51;100.00;99796.28;5103761;28;20028;-75
2022/11/16 00:38:22;;;;;;;113.85;49.17;;;;;;;9.53;100.00;99810.34;5098706;28;20040;-73
2022/11/16 00:40:48;;;;;;;115.43;50.55;;;;;;;9.50;100.00;99790.06;5099667;28;20548;-74
2022/11/16 00:43:14;;;;;;;109.03;48.67;;;;;;;9.53;100.00;99802.31;5100572;28;20107;-74
2022/11/16 00:45:41;;;;;;;99.68;47.30;;;;;;;9.49;100.00;99790.22;5102609;28;20404;-74
2022/11/16 00:48:07;;;;;;;106.00;50.35;;;;;;;9.50;100.00;99794.56;5095644;28;20048;-74
2022/11/16 00:50:32;;;;;;;105.97;48.75;;;;;;;9.51;100.00;99797.09;5100565;28;20094;-73
2022/11/16 00:52:58;;;;;;;115.97;51.72;;;;;;;9.52;100.00;99789.94;5100951;28;20032;-74
2022/11/16 00:55:23;;;;;;;118.60;51.63;;;;;;;9.50;100.00;99783.84;5099792;28;20445;-75
2022/11/16 00:57:48;;;;;;;123.30;56.30;;;;;;;9.52;100.00;99779.22;5099363;28;20323;-73
2022/11/16 01:00:14;;;;;;;116.55;51.63;;;;;;;9.51;100.00;99772.19;5093186;28;20739;-74
2022/11/16 01:02:40;;;;;;;113.80;50.00;;;;;;;9.51;100.00;99769.50;5098817;28;20020;-73
2022/11/16 01:05:08;;;;;;;125.03;54.70;;;;;;;9.51;100.00;99762.31;5102923;28;20024;-74
2022/11/16 01:07:36;;;;;;;115.53;52.75;;;;;;;9.53;100.00;99762.16;5100300;28;20055;-67
2022/11/16 01:10:04;;;;;;;120.70;53.85;;;;;;;9.52;100.00;99761.34;5098160;28;20526;-67
2022/11/16 01:12:30;;;;;;;110.18;51.90;;;;;;;9.53;100.00;99748.78;5098849;28;20169;-67
2022/11/16 01:14:55;;;;;;;117.57;54.28;;;;;;;9.51;100.00;99748.91;5098041;28;20032;-67
2022/11/16 01:17:21;;;;;;;117.97;53.53;;;;;;;9.45;100.00;99730.78;5097100;28;20319;-66
2022/11/16 01:19:46;;;;;;;112.65;52.42;;;;;;;9.55;100.00;99734.28;5090368;28;20028;-75
2022/11/16 01:22:12;;;;;;;124.85;55.53;;;;;;;9.55;100.00;99736.97;5095531;28;20024;-75
2022/11/16 01:24:37;;;;;;;136.10;57.83;;;;;;;9.54;100.00;99727.22;5104580;28;20037;-74
2022/11/16 01:27:03;;;;;;;124.32;56.75;;;;;;;9.54;100.00;99721.06;5102509;28;20437;-74
2022/11/16 01:29:29;;;;;;;128.63;55.30;;;;;;;9.55;100.00;99707.53;5097034;28;20026;-75
2022/11/16 01:31:55;;;;;;;138.07;59.25;;;;;;;9.51;100.00;99700.75;5099520;28;20027;-75
2022/11/16 01:34:21;;;;;;;131.00;57.00;;;;;;;9.57;100.00;99705.53;5104725;28;20076;-75
2022/11/16 01:36:47;;;;;;;129.85;56.55;;;;;;;9.56;100.00;99697.63;5094840;28;20028;-74
2022/11/16 01:39:13;;;;;;;135.90;55.05;;;;;;;9.49;100.00;99685.81;5102700;28;20089;-75
2022/11/16 01:41:39;;;;;;;124.28;54.75;;;;;;;9.53;100.00;99693.44;5095623;28;20027;-73
2022/11/16 01:44:31;;;;;;;125.18;53.67;;;;;;;9.56;100.00;99700.31;5097496;28;20527;-74
2022/11/16 01:47:06;;;;;;;119.88;54.72;;;;;;;9.56;100.00;99703.84;5099461;28;20019;-73
2022/11/16 01:49:35;;;;;;;126.90;53.97;;;;;;;9.54;100.00;99695.09;5097186;28;20031;-74
2022/11/16 01:52:05;;;;;;;122.30;53.17;;;;;;;9.55;100.00;99695.97;5100543;28;20050;-74
2022/11/16 01:54:33;;;;;;;146.77;56.35;;;;;;;9.55;100.00;99695.97;5099538;28;20028;-73
2022/11/16 01:57:06;;;;;;;127.22;53.53;;;;;;;9.55;100.00;99685.25;5100858;28;20039;-74
2022/11/16 01:59:32;;;;;;;140.60;55.75;;;;;;;9.54;100.00;99694.28;5099893;28;20024;-73
2022/11/16 02:02:01;;;;;;;143.77;57.55;;;;;;;9.51;100.00;99682.00;5102636;28;20501;-73
2022/11/16 02:04:27;;;;;;;134.25;54.88;;;;;;;9.54;100.00;99684.41;5099317;28;20024;-73
2022/11/16 02:07:14;;;;;;;127.43;54.42;;;;;;;9.54;100.00;99678.22;5101135;28;20761;-74
2022/11/16 02:09:56;;;;;;;128.52;53.75;;;;;;;9.55;100.00;99677.22;5103436;28;20535;-75
2022/11/16 02:12:59;;;;;;;127.15;53.63;;;;;;;9.52;100.00;99664.97;5103627;28;20024;-74
2022/11/16 02:15:37;;;;;;;129.40;52.92;;;;;;;9.56;100.00;99666.38;5095318;28;20020;-73
2022/11/16 02:18:32;;;;;;;139.63;54.67;;;;;;;9.56;100.00;99668.19;5095513;28;20071;-75
2022/11/16 02:21:21;;;;;;;150.88;54.65;;;;;;;9.47;100.00;99642.28;5100808;28;20364;-74
2022/11/16 02:23:47;;;;;;;138.30;53.65;;;;;;;9.57;100.00;99651.16;5098343;28;20035;-76
2022/11/16 02:26:52;;;;;;;142.27;54.28;;;;;;;9.59;100.00;99663.41;5101148;28;20540;-73
2022/11/16 02:29:22;;;;;;;136.30;54.58;;;;;;;9.57;100.00;99649.31;5099856;28;20407;-67
2022/11/16 02:32:03;;;;;;;148.90;58.22;;;;;;;9.59;100.00;99647.34;5096023;28;20092;-67
2022/11/16 02:34:53;;;;;;;147.00;58.10;;;;;;;9.53;100.00;99626.50;5102000;27;20023;-66
2022/11/16 02:37:22;;;;;;;143.80;58.63;;;;;;;9.60;100.00;99637.47;5093507;28;20035;-66
2022/11/16 02:39:53;;;;;;;156.52;57.50;;;;;;;9.57;100.00;99627.91;5101267;27;20716;-67
2022/11/16 02:42:30;;;;;;;145.52;56.15;;;;;;;9.55;100.00;99611.16;5098876;28;20022;-67
2022/11/16 02:44:58;;;;;;;140.27;55.65;;;;;;;9.59;100.00;99615.22;5095430;28;20476;-67
2022/11/16 02:47:29;;;;;;;153.25;57.53;;;;;;;9.60;100.00;99619.56;5097980;28;20446;-67
2022/11/16 02:49:59;;;;;;;153.38;59.80;;;;;;;9.53;100.00;99596.22;5099520;28;20383;-66
2022/11/16 02:52:27;;;;;;;152.82;58.60;;;;;;;9.58;100.00;99620.72;5094944;28;20119;-66
2022/11/16 02:54:53;;;;;;;153.98;58.88;;;;;;;9.60;100.00;99622.25;5102736;28;20670;-66
2022/11/16 02:57:39;;;;;;;147.98;56.38;;;;;;;9.61;100.00;99607.88;5090549;28;20038;-66
2022/11/16 03:00:07;;;;;;;156.00;61.13;;;;;;;9.63;100.00;99621.97;5095111;28;20023;-66
2022/11/16 03:02:41;;;;;;;158.90;59.30;;;;;;;9.59;100.00;99598.31;5099179;28;20027;-66
2022/11/16 03:05:31;;;;;;;153.65;60.38;;;;;;;9.65;100.00;99598.59;5098438;28;20073;-66
2022/11/16 03:08:10;;;;;;;162.35;59.55;;;;;;;9.65;100.00;99603.94;5097175;28;20027;-68
2022/11/16 03:13:29;;;;;;;169.57;62.33;;;;;;;9.67;100.00;99601.94;5103840;28;20506;-67
2022/11/16 03:15:55;;;;;;;156.70;62.42;;;;;;;9.67;100.00;99601.94;5102044;27;20485;-66
2022/11/16 03:18:24;;;;;;;160.23;62.50;;;;;;;9.59;100.00;99588.44;5100622;27;20403;-67
2022/11/16 03:20:56;;;;;;;160.52;62.42;;;;;;;9.62;100.00;99585.50;5110732;27;20027;-67
2022/11/16 03:23:21;;;;;;;153.82;60.15;;;;;;;9.67;100.00;99593.09;5099797;27;20169;-67
2022/11/16 03:25:54;;;;;;;166.05;63.25;;;;;;;9.69;100.00;99593.75;5096875;28;20028;-67
2022/11/16 03:28:26;;;;;;;164.95;61.28;;;;;;;9.68;100.00;99584.91;5099846;28;20031;-67
2022/11/16 03:30:57;;;;;;;157.75;61.83;;;;;;;9.67;100.00;99579.69;5087426;28;20372;-66
2022/11/16 03:33:35;;;;;;;163.30;64.03;;;;;;;9.70;100.00;99593.63;5092233;28;20058;-66
2022/11/16 03:36:09;;;;;;;155.23;58.92;;;;;;;9.71;100.00;99594.47;5094257;28;20034;-66
2022/11/16 03:38:36;;;;;;;;;;;;;;;9.71;100.00;99578.41;5092447;28;20472;-67
2022/11/16 03:41:06;;;;;;;144.55;57.83;;;;;;;9.74;100.00;99578.94;5104835;28;20278;-67
2022/11/16 03:43:33;;;;;;;156.80;62.10;;;;;;;9.66;100.00;99562.78;5100771;28;20023;-68
2022/11/16 03:45:58;;;;;;;163.85;62.00;;;;;;;9.73;100.00;99563.00;5089780;28;20036;-67
2022/11/16 03:48:24;;;;;;;153.65;61.60;;;;;;;9.71;100.00;99565.00;5092872;27;20186;-67
2022/11/16 03:50:51;;;;;;;145.60;57.88;;;;;;;9.69;100.00;99558.94;5104106;27;20057;-66
2022/11/16 03:53:16;;;;;;;157.80;63.13;;;;;;;9.75;100.00;99564.56;5107743;27;20055;-66
2022/11/16 03:55:43;;;;;;;159.88;62.85;;;;;;;9.70;100.00;99553.44;5095969;28;20469;-66
2022/11/16 03:58:09;;;;;;;163.88;63.72;;;;;;;9.70;100.00;99545.41;5096321;28;20032;-66
2022/11/16 04:00:34;;;;;;;151.80;61.22;;;;;;;9.71;100.00;99547.13;5099362;27;20049;-65
2022/11/16 04:03:00;;;;;;;151.55;62.50;;;;;;;9.76;100.00;99552.88;5107381;27;20031;-74
2022/11/16 04:24:53;;;;;;;143.23;58.28;;;;;;;9.70;100.00;99507.94;5106500;28;20419;-75
2022/11/16 04:30:09;;;;;;;147.77;60.80;;;;;;;9.79;100.00;99522.25;5097172;28;20467;-74
2022/11/16 04:38:03;;;;;;;151.15;60.30;;;;;;;9.79;100.00;99509.72;5093848;28;20093;-65
2022/11/16 04:40:28;;;;;;;163.25;63.17;;;;;;;9.70;100.00;99485.69;5097233;28;20433;-66
2022/11/16 04:42:56;;;;;;;157.45;62.92;;;;;;;9.84;100.00;99509.28;5098520;28;20094;-66
2022/11/16 04:48:07;;;;;;;154.75;63.47;;;;;;;9.85;100.00;99505.59;5096435;28;20062;-67
2022/11/16 04:50:33;;;;;;;149.35;60.78;;;;;;;9.75;100.00;99488.75;5097470;28;20625;-69
2022/11/16 04:52:59;;;;;;;157.07;62.15;;;;;;;9.80;100.00;99491.84;5099080;28;20041;-67
2022/11/16 04:55:25;;;;;;;168.68;64.72;;;;;;;9.75;100.00;99483.41;5096378;28;20121;-67
2022/11/16 04:57:51;;;;;;;141.82;59.55;;;;;;;9.84;100.00;99493.22;5097644;28;20032;-66
2022/11/16 05:00:17;;;;;;;144.80;60.72;;;;;;;9.75;100.00;99481.56;5101348;28;20240;-67
2022/11/16 05:02:42;;;;;;;143.25;58.33;;;;;;;9.86;100.00;99502.78;5096126;28;20452;-67
2022/11/16 05:05:08;;;;;;;152.70;61.58;;;;;;;9.90;100.00;99509.50;5097110;28;20086;-66
2022/11/16 05:07:34;;;;;;;146.95;60.60;;;;;;;9.87;100.00;99499.09;5102343;28;20019;-67
2022/11/16 05:10:02;;;;;;;144.68;60.42;;;;;;;9.79;100.00;99482.09;5097104;28;20027;-67
2022/11/16 05:12:28;;;;;;;152.30;59.72;;;;;;;9.82;100.00;99479.13;5093934;28;20534;-67
2022/11/16 05:14:54;;;;;;;141.88;57.70;;;;;;;9.90;100.00;99492.63;5101374;28;20023;-65
2022/11/16 05:17:21;;;;;;;143.70;60.97;;;;;;;9.90;100.00;99492.63;5093746;28;20426;-66
2022/11/16 05:22:30;;;;;;;139.38;58.83;;;;;;;9.89;100.00;99475.69;5097191;28;20556;-68
2022/11/16 05:24:56;;;;;;;126.97;58.85;;;;;;;9.95;100.00;99496.53;5097554;28;20142;-67
2022/11/16 05:27:23;;;;;;;149.80;59.58;;;;;;;9.96;100.00;99494.69;5099113;28;20020;-67
2022/11/16 05:29:49;;;;;;;149.05;63.15;;;;;;;9.94;100.00;99488.63;5100717;28;20046;-66
2022/11/16 05:32:16;;;;;;;139.05;58.88;;;;;;;9.97;100.00;99480.31;5100440;28;20028;-66
2022/11/16 05:34:42;;;;;;;135.90;58.25;;;;;;;9.92;100.00;99478.06;5103050;28;20023;-67
2022/11/16 05:37:11;;;;;;;134.40;59.25;;;;;;;9.96;100.00;99471.41;5105970;28;20038;-67
2022/11/16 05:39:37;;;;;;;143.90;59.83;;;;;;;9.90;100.00;99461.31;5105128;28;20028;-66
2022/11/16 05:42:03;;;;;;;137.93;59.40;;;;;;;9.88;100.00;99457.09;5099800;28;20024;-65
2022/11/16 05:44:29;;;;;;;135.45;59.38;;;;;;;9.87;100.00;99456.25;5101600;28;20036;-66
2022/11/16 05:46:55;;;;;;;126.85;57.08;;;;;;;9.91;100.00;99457.66;5101718;28;20038;-66
2022/11/16 05:49:21;;;;;;;145.55;62.60;;;;;;;9.87;100.00;99448.22;5101276;28;20122;-67
2022/11/16 05:51:47;;;;;;;134.32;59.83;;;;;;;10.00;100.00;99466.59;5100082;28;20038;-65
2022/11/16 05:54:15;;;;;;;124.10;55.60;;;;;;;9.90;100.00;99450.59;5100255;28;20430;-66
2022/11/16 05:56:41;;;;;;;127.65;56.95;;;;;;;10.04;100.00;99451.91;5099937;28;20483;-67
2022/11/16 05:59:07;;;;;;;123.30;54.40;;;;;;;9.93;100.00;99438.75;5097155;28;20027;-67
2022/11/16 06:01:32;;;;;;;117.82;53.05;;;;;;;9.95;100.00;99434.91;5102376;28;20023;-66
2022/11/16 06:04:01;;;;;;;125.20;56.13;;;;;;;10.01;100.00;99461.09;5096054;28;20035;-67
2022/11/16 06:06:27;;;;;;;125.47;56.33;;;;;;;9.98;100.00;99445.34;5097248;28;20421;-66
2022/11/16 06:08:53;;;;;;;125.93;57.72;;;;;;;10.02;100.00;99451.22;5104353;28;20043;-67
2022/11/16 06:11:19;;;;;;;114.90;53.72;;;;;;;10.03;100.00;99456.41;5099902;28;20521;-66
2022/11/16 06:13:45;;;;;;;113.35;52.25;;;;;;;10.03;100.00;99447.56;5102224;28;20425;-66
2022/11/16 06:16:11;;;;;;;113.90;52.15;;;;;;;10.01;100.00;99446.84;5096020;28;20032;-66
2022/11/16 06:18:39;;;;;;;113.82;52.85;;;;;;;10.04;100.00;99442.06;5102840;28;20030;-67
2022/11/16 06:21:05;;;;;;;107.45;48.97;;;;;;;10.01;100.00;99444.19;5097796;27;20052;-65
2022/11/16 06:23:31;;;;;;;102.18;48.17;;;;;;;10.00;100.00;99427.25;5102444;28;20098;-66
2022/11/16 06:25:56;;;;;;;116.53;52.55;;;;;;;10.02;100.00;99432.47;5096706;28;20032;-66
2022/11/16 06:28:23;;;;;;;106.90;53.03;;;;;;;10.08;100.00;99447.97;5106097;28;20027;-67
2022/11/16 06:30:49;;;;;;;99.60;49.67;;;;;;;10.06;100.00;99445.44;5098610;28;20803;-66
2022/11/16 06:33:15;;;;;;;107.50;50.13;;;;;;;10.10;100.00;99446.84;5098843;28;20031;-68
2022/11/16 06:35:41;;;;;;;105.40;50.25;;;;;;;10.05;100.00;99443.72;5098017;28;20107;-66
2022/11/16 06:38:07;;;;;;;103.03;49.70;;;;;;;10.05;100.00;99441.03;5101339;27;20110;-66
2022/11/16 06:40:33;;;;;;;101.68;50.33;;;;;;;10.12;100.00;99439.47;5103742;28;20031;-66
2022/11/16 06:42:58;;;;;;;98.07;50.08;;;;;;;10.11;100.00;99437.78;5101561;28;20492;-67
2022/11/16 06:45:25;;;;;;;100.57;49.17;;;;;;;10.12;100.00;99442.16;5098411;28;20471;-67
2022/11/16 06:47:51;;;;;;;99.72;50.42;;;;;;;10.14;100.00;99431.28;5097546;28;20593;-67
2022/11/16 06:50:19;;;;;;;102.47;51.10;;;;;;;10.17;100.00;99434.50;5093624;28;20039;-67
2022/11/16 06:52:46;;;;;;;93.25;48.63;;;;;;;10.09;100.00;99418.34;5100445;28;20027;-67
2022/11/16 06:55:12;;;;;;;100.35;49.45;;;;;;;10.15;100.00;99427.59;5105818;27;20037;-67
2022/11/16 06:57:37;;;;;;;100.95;52.17;;;;;;;10.21;100.00;99422.47;5092522;28;20045;-67
2022/11/16 07:00:04;;;;;;;94.25;49.50;;;;;;;10.13;100.00;99413.53;5101542;28;20027;-66
2022/11/16 07:02:29;;;;;;;97.47;49.40;;;;;;;9.89;100.00;99368.56;5102688;28;20048;-66
2022/11/16 07:04:55;;;;;;;98.18;50.63;;;;;;;10.08;100.00;99405.94;5096581;28;20538;-67
2022/11/16 07:07:20;;;;;;;98.82;50.40;;;;;;;10.07;100.00;99404.28;5094867;28;20027;-67
2022/11/16 07:09:45;;;;;;;97.82;49.90;;;;;;;10.09;100.00;99404.94;5098269;28;20032;-68
2022/11/16 07:12:11;;;;;;;99.78;51.30;;;;;;;10.21;100.00;99421.63;5104105;28;20229;-67
2022/11/16 07:14:36;;;;;;;105.15;51.63;;;;;;;10.22;100.00;99416.09;5100727;28;20123;-67
2022/11/16 07:17:02;;;;;;;95.97;51.15;;;;;;;10.20;100.00;99409.22;5103899;28;20467;-67
2022/11/16 07:19:27;;;;;;;102.70;53.42;;;;;;;10.23;100.00;99415.13;5101913;28;20024;-67
2022/11/16 07:21:52;;;;;;;105.80;54.05;;;;;;;10.21;100.00;99403.72;5099584;28;20111;-75
2022/11/16 07:24:18;;;;;;;107.45;53.97;;;;;;;10.31;100.00;99417.00;5100236;28;20824;-75
2022/11/16 07:26:43;;;;;;;107.53;52.80;;;;;;;10.28;100.00;99410.13;5102649;28;20039;-76
2022/11/16 07:29:09;;;;;;;104.72;53.10;;;;;;;10.30;100.00;99412.66;5105072;28;20034;-74
2022/11/16 07:31:34;;;;;;;99.60;49.90;;;;;;;10.30;100.00;99412.66;5107831;28;20020;-77
2022/11/16 07:33:59;;;;;;;104.70;52.78;;;;;;;10.32;100.00;99419.53;5102314;28;20012;-75
2022/11/16 07:36:25;;;;;;;96.85;47.72;;;;;;;10.34;100.00;99412.19;5092769;28;20111;-73
2022/11/16 07:38:50;;;;;;;98.00;49.00;;;;;;;10.36;100.00;99398.66;5097791;28;20026;-74
2022/11/16 07:41:18;;;;;;;103.95;50.08;;;;;;;10.36;100.00;99401.31;5098839;28;20052;-74
2022/11/16 07:43:44;;;;;;;98.45;47.70;;;;;;;10.38;100.00;99402.03;5099430;28;20403;-75
2022/11/16 07:46:18;;;;;;;98.15;50.47;;;;;;;10.39;100.00;99398.34;5097795;28;20024;-74
2022/11/16 07:48:44;;;;;;;;;;;;;;;10.38;100.00;99397.50;5096639;28;20130;-74
2022/11/16 07:51:11;;;;;;;93.40;45.03;;;;;;;10.31;100.00;99384.84;5100235;28;20006;-75
2022/11/16 07:53:38;;;;;;;93.78;47.40;;;;;;;10.39;100.00;99401.88;5102456;28;20028;-76
2022/11/16 07:56:05;;;;;;;101.43;49.78;;;;;;;10.33;100.00;99378.38;5098017;28;20060;-75
2022/11/16 07:58:33;;;;;;;98.75;48.63;;;;;;;10.44;100.00;99398.69;5097958;28;20050;-75
2022/11/16 08:01:13;;;;;;;91.85;47.83;;;;;;;10.43;100.00;99389.84;5100563;28;20024;-75
2022/11/16 08:03:40;;;;;;;91.10;48.00;;;;;;;10.42;100.00;99388.13;5097686;28;20028;-75
2022/11/16 08:06:10;;;;;;;99.10;46.05;;;;;;;10.46;100.00;99383.31;5094919;28;20106;-75
2022/11/16 08:08:36;;;;;;;103.05;48.55;;;;;;;10.45;100.00;99382.47;5097482;28;20031;-75
2022/11/16 08:11:04;;;;;;;94.70;47.67;;;;;;;10.47;100.00;99388.50;5099795;28;20031;-75
2022/11/16 08:13:36;;;;;;;93.20;45.58;;;;;;;10.51;100.00;99392.56;5110915;28;20059;-67
2022/11/16 08:16:03;;;;;;;91.53;46.28;;;;;;;10.47;100.00;99383.16;5102331;28;20333;-68
2022/11/16 08:18:30;;;;;;;96.28;47.40;;;;;;;10.51;100.00;99381.84;5093314;28;20032;-67
2022/11/16 08:21:02;;;;;;;99.18;47.75;;;;;;;10.47;100.00;99380.47;5097833;28;20097;-67
2022/11/16 08:23:29;;;;;;;96.72;48.75;;;;;;;10.45;100.00;99371.72;5096906;28;20024;-67
2022/11/16 08:26:04;;;;;;;99.00;48.95;;;;;;;10.54;100.00;99386.88;5097104;28;20031;-67
2022/11/16 08:28:30;;;;;;;99.53;48.28;;;;;;;10.58;100.00;99382.88;5100344;28;20041;-67
2022/11/16 08:30:57;;;;;;;95.78;49.47;;;;;;;10.53;100.00;99369.13;5102429;27;20035;-67
2022/11/16 08:33:23;;;;;;;100.95;48.83;;;;;;;10.54;100.00;99369.94;5106245;28;20062;-68
2022/11/16 08:35:53;;;;;;;101.72;48.85;;;;;;;10.50;100.00;99364.06;5098932;28;20154;-66
2022/11/16 08:38:19;;;;;;;97.43;46.03;;;;;;;10.61;100.00;99373.72;5104610;28;20035;-67
2022/11/16 08:40:45;;;;;;;92.13;46.70;;;;;;;10.54;100.00;99373.47;5101716;28;20032;-69
2022/11/16 08:43:11;;;;;;;98.78;47.97;;;;;;;10.56;100.00;99374.19;5104203;28;20030;-67
2022/11/16 08:45:37;;;;;;;102.38;49.67;;;;;;;10.55;100.00;99360.94;5100423;28;20028;-68
2022/11/16 08:48:04;;;;;;;99.45;48.55;;;;;;;10.61;100.00;99366.47;5098217;28;20455;-68
2022/11/16 08:50:30;;;;;;;102.63;48.38;;;;;;;10.66;100.00;99374.91;5093872;28;20115;-67
2022/11/16 08:52:56;;;;;;;96.45;47.63;;;;;;;10.67;100.00;99370.38;5086781;28;20075;-68
2022/11/16 08:55:23;;;;;;;94.05;48.08;;;;;;;10.68;100.00;99374.75;5098457;28;20071;-67
2022/11/16 08:57:48;;;;;;;88.93;45.10;;;;;;;10.56;100.00;99346.50;5101170;28;20042;-68
2022/11/16 09:00:14;;;;;;;96.80;47.03;;;;;;;10.65;100.00;99362.50;5102351;28;20023;-67
2022/11/16 09:02:40;;;;;;;97.68;48.45;;;;;;;10.66;100.00;99353.47;5096979;28;20039;-67
2022/11/16 09:05:07;;;;;;;97.03;47.53;;;;;;;10.67;100.00;99355.13;5104230;28;20459;-67
2022/11/16 09:07:32;;;;;;;95.80;46.42;;;;;;;10.74;100.00;99361.53;5106941;28;20054;-66
2022/11/16 09:09:58;;;;;;;94.47;48.88;;;;;;;10.70;100.00;99344.09;5094729;28;20066;-67
2022/11/16 09:12:23;;;;;;;92.20;46.58;;;;;;;10.80;100.00;99370.81;5101391;28;20028;-66
2022/11/16 09:14:49;;;;;;;89.18;46.42;;;;;;;10.81;100.00;99359.88;5099649;28;20032;-66
2022/11/16 09:17:14;;;;;;;95.22;47.92;;;;;;;10.83;100.00;99359.72;5100025;28;20030;-74
2022/11/16 09:19:40;;;;;;;98.13;46.90;;;;;;;10.84;100.00;99356.88;5101292;28;20487;-76
2022/11/16 09:22:05;;;;;;;85.07;46.10;;;;;;;10.85;100.00;99357.75;5106092;28;20028;-75
2022/11/16 09:24:30;;;;;;;98.78;51.88;;;;;;;10.88;100.00;99349.38;5104231;27;20032;-75
2022/11/16 09:27:00;;;;;;;101.13;51.70;;;;;;;10.90;100.00;99347.38;5099899;28;20589;-75
2022/11/16 09:29:26;;;;;;;101.00;53.83;;;;;;;10.83;100.00;99332.91;5100318;28;20031;-74
2022/11/16 09:31:52;;;;;;;88.55;48.55;;;;;;;11.01;100.00;99345.25;5103600;28;20024;-75
2022/11/16 09:34:18;;;;;;;95.45;50.78;;;;;;;11.01;100.00;99331.84;5100785;28;20061;-75
2022/11/16 09:36:44;;;;;;;97.68;51.38;;;;;;;10.99;100.00;99320.44;5100892;28;20035;-74
2022/11/16 09:39:11;;;;;;;97.63;51.03;;;;;;;11.07;100.00;99328.50;5100097;28;20032;-74
2022/11/16 09:41:48;;;;;;;98.40;50.80;;;;;;;11.10;100.00;99330.84;5098359;28;20379;-75
2022/11/16 09:44:46;;;;;;;89.70;48.97;;;;;;;11.09;100.00;99322.97;5098104;28;20047;-75
2022/11/16 09:47:17;;;;;;;92.80;48.90;;;;;;;11.14;100.00;99312.59;5104009;28;20040;-75
2022/11/16 09:49:50;;;;;;;85.05;49.00;;;;;;;11.15;100.00;99304.38;5103640;28;20035;-74
2022/11/16 09:52:29;;;;;;;89.32;48.63;;;;;;;11.14;100.00;99297.34;5104462;28;20027;-75
2022/11/16 09:54:59;;;;;;;86.68;48.22;;;;;;;11.24;100.00;99300.72;5102952;28;20028;-75
2022/11/16 09:57:31;;;;;;;93.43;49.42;;;;;;;11.28;100.00;99301.22;5096782;28;20028;-76
2022/11/16 10:00:03;;;;;;;91.13;48.60;;;;;;;11.33;100.00;99288.16;5099803;28;20086;-76
2022/11/16 10:02:37;;;;;;;93.45;48.47;;;;;;;11.37;100.00;99287.69;5104666;28;20022;-76
2022/11/16 10:05:15;;;;;;;82.25;45.63;;;;;;;11.44;100.00;99279.78;5103618;28;20480;-76
2022/11/16 10:07:47;;;;;;;92.28;48.80;;;;;;;11.48;100.00;99276.59;5100517;28;20591;-75
2022/11/16 10:10:15;;;;;;;86.05;48.42;;;;;;;11.54;100.00;99269.72;5102478;28;20070;-76
2022/11/16 10:12:47;;;;;;;91.95;49.85;;;;;;;11.57;100.00;99270.25;5102148;28;20114;-75
2022/11/16 10:15:19;;;;;;;84.55;47.75;;;;;;;11.66;100.00;99259.53;5104890;28;20057;-75
2022/11/16 10:17:59;;;;;;;83.03;47.22;;;;;;;11.70;100.00;99256.34;5098719;28;20046;-75
2022/11/16 10:20:38;;;;;;;88.40;48.47;;;;;;;11.76;100.00;99252.16;5105350;28;20019;-76
2022/11/16 10:23:45;;;;;;;82.35;47.28;;;;;;;11.80;100.00;99258.88;5103548;28;20028;-75
2022/11/16 10:26:13;;;;;;;81.38;45.92;;;;;;;11.84;100.00;99249.47;5105788;28;20777;-75
2022/11/16 10:28:50;;;;;;;80.88;45.38;;;;;;;11.90;100.00;99248.81;5099125;28;20019;-74
2022/11/16 10:31:34;;;;;;;77.30;45.33;;;;;;;11.91;100.00;99243.25;5103039;28;20122;-75
2022/11/16 10:34:01;;;;;;;82.13;46.53;;;;;;;11.94;100.00;99224.13;5102724;28;20023;-75
2022/11/16 10:36:30;;;;;;;77.07;44.67;;;;;;;12.03;100.00;99225.75;5102821;28;20023;-75
2022/11/16 10:38:59;;;;;;;76.97;45.78;;;;;;;12.04;100.00;99224.78;5104844;28;20046;-75
2022/11/16 10:41:36;;;;;;;80.07;44.10;;;;;;;11.98;100.00;99200.41;5103238;28;20020;-75
2022/11/16 10:44:01;;;;;;;75.75;43.97;;;;;;;12.09;100.00;99206.25;5102766;28;20408;-75
2022/11/16 10:46:41;;;;;;;70.90;41.28;;;;;;;12.05;100.00;99199.56;5098408;28;20119;-75
2022/11/16 10:49:28;;;;;;;74.95;41.75;;;;;;;12.15;100.00;99197.53;5102100;28;20047;-76
2022/11/16 10:51:54;;;;;;;72.57;42.50;;;;;;;12.20;100.00;99191.63;5104492;28;20160;-77
2022/11/16 10:54:19;;;;;;;70.90;41.63;;;;;;;12.18;100.00;99188.28;5100273;28;20134;-76
2022/11/16 10:56:58;;;;;;;73.05;41.95;;;;;;;12.24;100.00;99190.28;5101915;28;20042;-77
2022/11/16 10:59:42;;;;;;;67.75;39.42;;;;;;;12.28;100.00;99195.13;5101767;28;20436;-77
2022/11/16 11:02:29;;;;;;;72.95;43.38;;;;;;;12.30;100.00;99197.66;5094049;28;20016;-76
2022/11/16 11:05:10;;;;;;;72.05;42.08;;;;;;;12.31;100.00;99188.56;5106752;28;20028;-76
2022/11/16 11:07:38;;;;;;;70.75;41.75;;;;;;;12.29;100.00;99182.53;5104654;28;20433;-77
2022/11/16 11:10:05;;;;;;;69.90;40.50;;;;;;;12.27;100.00;99180.03;5102616;28;20046;-77
2022/11/16 11:12:36;;;;;;;77.78;42.40;;;;;;;12.30;100.00;99182.38;5104083;27;20024;-76
2022/11/16 11:15:05;;;;;;;68.82;39.13;;;;;;;12.31;100.00;99177.81;5097951;28;20020;-76
2022/11/16 11:17:32;;;;;;;68.68;41.28;;;;;;;12.32;100.00;99184.88;5102213;28;20081;-75
2022/11/16 11:20:20;;;;;;;64.85;40.83;;;;;;;12.33;100.00;99182.03;5100159;28;20028;-75
2022/11/16 11:22:48;;;;;;;73.47;42.03;;;;;;;12.34;100.00;99170.25;5101399;28;20054;-76
2022/11/16 11:25:33;;;;;;;70.13;41.75;;;;;;;12.37;100.00;99172.59;5104715;28;20054;-76
2022/11/16 11:28:23;;;;;;;73.07;42.13;;;;;;;12.37;100.00;99169.91;5098646;28;20046;-76
2022/11/16 11:31:00;;;;;;;70.68;43.33;;;;;;;12.42;100.00;99164.00;5103813;28;20019;-76
2022/11/16 11:33:29;;;;;;;69.88;42.20;;;;;;;12.42;100.00;99166.69;5099775;28;20055;-75
2022/11/16 11:36:00;;;;;;;71.32;44.67;;;;;;;12.36;100.00;99153.94;5098960;28;20111;-75
2022/11/16 11:38:26;;;;;;;74.68;42.20;;;;;;;12.40;100.00;99161.50;5101975;28;20432;-75
2022/11/16 11:40:57;;;;;;;68.13;42.33;;;;;;;12.42;100.00;99158.63;5098725;28;20153;-76
2022/11/16 11:43:24;;;;;;;75.53;44.47;;;;;;;12.37;100.00;99150.25;5105322;28;20032;-76
2022/11/16 11:46:29;;;;;;;77.80;45.03;;;;;;;12.40;100.00;99147.19;5100639;28;20024;-76
2022/11/16 11:49:08;;;;;;;75.25;44.10;;;;;;;12.42;100.00;99161.31;5027099;28;20478;-67
2022/11/16 11:51:39;;;;;;;69.53;42.53;;;;;;;12.36;100.00;99143.19;5010277;28;20041;-68
2022/11/16 11:54:13;;;;;;;73.15;43.67;;;;;;;12.33;100.00;99140.84;5069681;28;20032;-67
2022/11/16 11:56:39;;;;;;;73.75;42.53;;;;;;;12.38;100.00;99157.31;5087651;28;20081;-67